LYBE/BEG METAR and TAF weather

Enter ICAO airport designator
Station Type Date Time Source
LYBE METAR 2022/01/26 21:00 UTC NOAA

LYBE 262100Z 27010KT 9999 BKN033 01/M01 Q1028 NOSIG


Station Type Date Time Source
LYBE Decoded METAR 2022/01/26 21:00 UTC NOAA

Beograd / Surcin, Serbia and Montenegro (LYBE) 44-49N 020-17E 99M
Jan 26, 2022 - 04:00 PM EST / 2022.01.26 2100 UTC
Wind: from the W (270 degrees) at 12 MPH (10 KT):0
Visibility: greater than 7 mile(s):0
Sky conditions: mostly cloudy
Temperature: 33 F (1 C)
Windchill: 24 F (-4 C):1
Dew Point: 30 F (-1 C)
Relative Humidity: 86%
Pressure (altimeter): 30.36 in. Hg (1028 hPa)
ob: LYBE 262100Z 27010KT 9999 BKN033 01/M01 Q1028 NOSIG
cycle: 21

Station Type Date Time Source
LYBE TAF 2022/01/26 18:22 UTC NOAA

TAF LYBE 261700Z 2618/2718 26008KT 7000 SCT013 BKN027 TX04/2713Z TNM01/2706Z

Example: see airport list